Time;durP1;ratioP1;P1;durP2;ratioP2;P2;SDS_P1;SDS_P2;PMS_P1;PMS_P2;Temp;Humidity;BMP_temperature;BMP_pressure;BME280_temperature;BME280_humidity;BME280_pressure;Samples;Min_cycle;Max_cycle;Signal;HPM_P1;HPM_P2
2022/04/17 00:00:15;;;;;;;2.37;1.85;;;;;;;4.57;68.14;99649.34;1755794;80;21008;-38
2022/04/17 00:02:43;;;;;;;2.30;2.08;;;;;;;4.56;68.14;99647.20;1755752;80;21028;-38
2022/04/17 00:05:11;;;;;;;1.90;1.70;;;;;;;4.58;68.18;99645.55;1755751;81;21597;-38
2022/04/17 00:07:38;;;;;;;2.67;2.08;;;;;;;4.64;68.12;99641.08;1755816;81;20985;-39
2022/04/17 00:10:06;;;;;;;2.52;2.10;;;;;;;4.72;68.01;99643.52;1755819;81;21274;-38
2022/04/17 00:12:34;;;;;;;2.17;1.98;;;;;;;4.76;68.12;99647.16;1755753;80;21514;-38
2022/04/17 00:15:03;;;;;;;2.62;2.05;;;;;;;4.77;67.89;99645.52;1755947;81;20964;-39
2022/04/17 00:17:31;;;;;;;2.45;2.02;;;;;;;4.78;68.01;99646.31;1755752;81;20968;-38
2022/04/17 00:19:57;;;;;;;3.30;2.17;;;;;;;4.76;67.96;99651.98;1755920;81;20981;-38
2022/04/17 00:22:25;;;;;;;2.65;2.22;;;;;;;4.77;68.05;99653.57;1755706;80;21138;-38
2022/04/17 00:24:53;;;;;;;2.67;2.15;;;;;;;4.76;67.94;99645.82;1755866;80;20976;-39
2022/04/17 00:27:21;;;;;;;3.95;1.95;;;;;;;4.77;67.97;99650.89;1755903;81;21290;-39
2022/04/17 00:29:48;;;;;;;2.70;2.17;;;;;;;4.87;68.02;99653.03;1755895;81;20980;-38
2022/04/17 00:32:16;;;;;;;3.70;2.40;;;;;;;4.92;67.95;99641.59;1755808;80;21012;-38
2022/04/17 00:34:44;;;;;;;2.50;2.30;;;;;;;4.91;67.89;99645.92;1755804;80;21128;-38
2022/04/17 00:37:11;;;;;;;2.45;2.25;;;;;;;4.87;68.03;99643.63;1755785;81;21547;-39
2022/04/17 00:39:40;;;;;;;2.95;2.60;;;;;;;4.84;68.14;99644.27;1755821;81;20977;-39
2022/04/17 00:42:09;;;;;;;3.47;2.50;;;;;;;4.84;68.26;99640.23;1755833;81;21020;-38
2022/04/17 00:44:40;;;;;;;3.33;2.37;;;;;;;4.81;68.30;99641.64;1755907;81;21060;-38
2022/04/17 00:47:08;;;;;;;2.58;2.17;;;;;;;4.82;68.38;99640.55;1755692;81;21559;-39
2022/04/17 00:49:34;;;;;;;3.22;2.60;;;;;;;4.81;68.43;99638.95;1755798;81;21493;-38
2022/04/17 00:52:01;;;;;;;3.60;2.58;;;;;;;4.77;68.48;99644.17;1755871;80;21016;-39
2022/04/17 00:54:29;;;;;;;5.10;3.40;;;;;;;4.72;68.77;99646.21;1755768;80;20972;-39
2022/04/17 00:56:56;;;;;;;3.05;2.75;;;;;;;4.69;68.91;99646.30;1746339;81;21495;-39
2022/04/17 00:59:23;;;;;;;3.65;2.80;;;;;;;4.66;69.17;99642.87;1742330;82;21126;-38
2022/04/17 01:01:52;;;;;;;2.65;2.33;;;;;;;4.60;69.14;99647.39;1742377;82;20934;-38
2022/04/17 01:04:20;;;;;;;3.52;2.67;;;;;;;4.58;69.29;99638.30;1742787;82;21504;-39
2022/04/17 01:06:48;;;;;;;3.22;2.90;;;;;;;4.62;69.35;99639.24;1742599;81;21016;-38
2022/04/17 01:09:15;;;;;;;3.45;2.72;;;;;;;4.65;69.38;99635.13;1742507;82;21006;-38
2022/04/17 01:11:44;;;;;;;3.67;2.83;;;;;;;4.66;69.28;99633.48;1742430;81;21645;-38
2022/04/17 01:14:12;;;;;;;3.55;3.05;;;;;;;4.68;69.30;99638.55;1742304;81;21004;-39
2022/04/17 01:16:39;;;;;;;3.40;2.47;;;;;;;4.70;69.25;99635.77;1742329;81;21052;-39
2022/04/17 01:19:12;;;;;;;3.00;2.70;;;;;;;4.73;69.24;99630.34;1742395;81;20937;-38
2022/04/17 01:21:41;;;;;;;2.65;2.27;;;;;;;4.74;69.18;99635.38;1742315;82;21017;-39
2022/04/17 01:26:58;;;;;;;2.30;2.10;;;;;;;4.85;69.02;99633.73;1742465;82;21776;-38
2022/04/17 01:29:32;;;;;;;2.98;2.40;;;;;;;4.86;69.00;99637.46;1742421;81;20890;-38
2022/04/17 01:31:59;;;;;;;2.67;2.30;;;;;;;4.85;69.14;99629.70;1742302;82;20941;-38
2022/04/17 01:34:26;;;;;;;2.67;2.47;;;;;;;4.83;69.23;99628.70;1742352;82;21057;-38
2022/04/17 01:36:54;;;;;;;3.20;2.40;;;;;;;4.80;69.33;99624.73;1742307;82;21236;-39
2022/04/17 01:39:21;;;;;;;2.95;2.27;;;;;;;4.80;69.45;99632.79;1767807;79;21025;-38
2022/04/17 01:41:50;;;;;;;2.70;2.15;;;;;;;4.84;69.46;99631.63;1772932;81;21526;-38
2022/04/17 01:44:18;;;;;;;2.52;2.33;;;;;;;4.89;69.42;99628.00;1773090;81;20994;-38
2022/04/17 01:46:45;;;;;;;2.50;2.30;;;;;;;4.93;69.46;99626.26;1773175;81;21021;-39
2022/04/17 01:49:15;;;;;;;3.02;2.33;;;;;;;4.95;69.56;99623.48;1772946;81;21700;-38
2022/04/17 01:51:43;;;;;;;2.85;2.42;;;;;;;4.98;69.52;99623.42;1773179;81;21480;-38
2022/04/17 01:54:12;;;;;;;3.40;1.87;;;;;;;4.95;69.52;99624.03;1773351;79;21010;-38
2022/04/17 01:56:40;;;;;;;2.62;2.37;;;;;;;4.93;69.67;99618.99;1772975;80;20986;-39
2022/04/17 01:59:07;;;;;;;2.40;2.20;;;;;;;4.91;69.84;99616.37;1773236;81;21554;-38
2022/04/17 02:01:35;;;;;;;2.58;2.33;;;;;;;4.91;69.94;99614.48;1772853;81;23190;-38
2022/04/17 02:04:03;;;;;;;2.98;2.33;;;;;;;4.98;69.96;99620.73;1772945;81;21008;-39
2022/04/17 02:06:31;;;;;;;2.60;2.40;;;;;;;5.02;70.11;99613.61;1773344;79;20965;-38
2022/04/17 02:08:57;;;;;;;4.40;2.65;;;;;;;5.02;70.33;99609.03;1772987;79;20934;-38
2022/04/17 02:11:25;;;;;;;2.92;2.47;;;;;;;5.01;70.61;99605.31;1772894;81;20990;-38
2022/04/17 02:13:54;;;;;;;3.05;2.75;;;;;;;4.70;70.80;99555.21;1773195;81;21158;-38
2022/04/17 02:16:22;;;;;;;3.00;2.42;;;;;;;5.05;70.85;99608.94;1772851;79;20957;-38
2022/04/17 02:18:49;;;;;;;3.27;2.25;;;;;;;5.08;70.85;99607.75;1772748;81;21503;-38
2022/04/17 02:21:17;;;;;;;2.60;2.20;;;;;;;5.13;70.37;99612.97;1773010;79;21531;-38
2022/04/17 02:23:44;;;;;;;2.58;2.37;;;;;;;5.11;70.23;99617.88;1772963;79;21045;-38
2022/04/17 02:26:13;;;;;;;2.72;2.52;;;;;;;5.04;70.50;99615.42;1772862;81;23133;-38
2022/04/17 02:28:41;;;;;;;3.40;2.35;;;;;;;5.01;70.50;99614.17;1773627;79;21499;-39
2022/04/17 02:31:09;;;;;;;2.83;2.05;;;;;;;4.94;70.39;99615.17;1773028;79;20977;-38
2022/04/17 02:33:37;;;;;;;1.92;1.37;;;;;;;4.82;70.38;99609.66;1773220;79;21041;-39
2022/04/17 02:36:05;;;;;;;1.87;1.60;;;;;;;4.68;70.58;99614.38;1773178;81;21080;-38
2022/04/17 02:38:34;;;;;;;2.83;1.47;;;;;;;4.61;70.64;99615.38;1773162;79;20930;-39
2022/04/17 02:41:00;;;;;;;1.60;1.50;;;;;;;4.51;70.41;99608.41;1772967;81;21008;-38
2022/04/17 02:43:28;;;;;;;2.50;1.82;;;;;;;4.36;70.87;99607.51;1772936;79;21002;-38
2022/04/17 02:45:56;;;;;;;2.90;1.87;;;;;;;4.23;71.26;99613.79;1773030;79;21026;-39
2022/04/17 02:48:23;;;;;;;2.10;1.70;;;;;;;4.12;71.74;99607.11;1772797;79;20994;-38
2022/04/17 02:50:50;;;;;;;2.52;1.85;;;;;;;4.07;72.14;99603.23;1772901;81;21280;-39
2022/04/17 02:53:17;;;;;;;2.40;1.57;;;;;;;4.13;72.35;99601.45;1772818;81;21481;-38
2022/04/17 02:55:45;;;;;;;3.35;1.90;;;;;;;4.19;72.67;99600.76;1772845;79;20938;-38
2022/04/17 02:58:14;;;;;;;3.98;2.30;;;;;;;4.23;72.79;99597.69;1789166;80;21084;-39
2022/04/17 03:06:14;;;;;;;3.67;2.30;;;;;;;4.17;73.02;99608.31;1789623;79;20964;-38
2022/04/17 03:08:43;;;;;;;3.15;2.05;;;;;;;4.15;73.00;99602.48;1789380;79;21007;-38
2022/04/17 03:11:11;;;;;;;3.22;2.40;;;;;;;4.24;73.04;99599.28;1789538;79;21484;-39
2022/04/17 03:13:40;;;;;;;3.95;2.35;;;;;;;4.28;72.95;99597.55;1789559;79;20918;-38
2022/04/17 03:16:08;;;;;;;4.05;2.80;;;;;;;4.27;72.89;99601.33;1789537;79;21304;-38
2022/04/17 03:18:36;;;;;;;;;;;;;;;4.24;72.78;99601.96;1791938;79;21004;-38
2022/04/17 03:21:03;;;;;;;4.10;2.70;;;;;;;4.13;72.70;99597.97;1789582;80;20466;-38
2022/04/17 03:23:29;;;;;;;3.87;2.58;;;;;;;3.98;73.23;99599.72;1789482;79;21016;-38
2022/04/17 03:25:56;;;;;;;5.03;2.58;;;;;;;3.99;73.38;99598.08;1789579;79;21060;-38
2022/04/17 03:28:24;;;;;;;4.28;2.87;;;;;;;4.03;73.40;99598.25;1789502;79;20961;-38
2022/04/17 03:30:52;;;;;;;4.80;2.95;;;;;;;4.06;73.74;99603.02;1789473;80;21259;-38
2022/04/17 03:33:18;;;;;;;3.83;3.00;;;;;;;4.09;73.81;99600.49;1789323;80;21011;-38
2022/04/17 03:35:46;;;;;;;3.67;2.62;;;;;;;4.13;73.80;99604.13;1789440;79;21542;-38
2022/04/17 03:38:14;;;;;;;6.03;2.90;;;;;;;4.18;73.76;99600.52;1783719;80;20985;-38
2022/04/17 03:40:41;;;;;;;4.28;2.62;;;;;;;4.25;73.72;99601.66;1789552;80;21180;-38
2022/04/17 03:43:08;;;;;;;3.42;2.70;;;;;;;4.38;73.46;99608.00;1789541;79;21467;-38
2022/04/17 03:45:35;;;;;;;3.92;2.35;;;;;;;4.48;73.20;99605.02;1789665;80;21007;-39
2022/04/17 03:48:02;;;;;;;3.95;2.60;;;;;;;4.48;73.03;99604.23;1789390;79;21032;-38
2022/04/17 03:50:30;;;;;;;3.35;2.50;;;;;;;4.47;73.07;99612.04;1789429;79;21008;-39
2022/04/17 03:52:58;;;;;;;5.80;2.65;;;;;;;4.47;73.13;99609.35;1789424;80;23146;-38
2022/04/17 03:55:26;;;;;;;2.92;2.17;;;;;;;4.50;73.21;99613.56;1789318;79;21044;-38
2022/04/17 03:57:52;;;;;;;3.10;2.08;;;;;;;4.55;73.11;99614.73;1777635;79;20949;-38
2022/04/17 04:00:19;;;;;;;3.08;2.45;;;;;;;4.66;73.04;99620.05;1772927;79;21045;-38
2022/04/17 04:02:48;;;;;;;3.10;2.35;;;;;;;4.74;72.91;99625.98;1773079;79;21504;-38
2022/04/17 04:05:15;;;;;;;3.83;2.62;;;;;;;4.78;73.02;99625.62;1773333;81;21089;-38
2022/04/17 04:07:42;;;;;;;5.30;3.02;;;;;;;4.82;73.02;99625.77;1772747;81;21547;-38
2022/04/17 04:10:10;;;;;;;3.60;2.50;;;;;;;4.84;72.86;99631.63;1772933;79;21764;-38
2022/04/17 04:12:37;;;;;;;3.83;2.50;;;;;;;4.81;72.84;99622.29;1772894;79;21006;-39
2022/04/17 04:15:07;;;;;;;4.00;2.35;;;;;;;4.88;72.69;99630.44;1772940;80;21555;-38
2022/04/17 04:17:34;;;;;;;3.40;2.20;;;;;;;4.93;72.40;99624.91;1773231;81;21768;-38
2022/04/17 04:20:04;;;;;;;2.98;2.27;;;;;;;4.92;72.19;99630.84;1773396;81;21519;-38
2022/04/17 04:22:31;;;;;;;2.77;2.20;;;;;;;4.88;72.16;99626.41;1773257;79;20918;-38
2022/04/17 04:24:59;;;;;;;3.52;2.27;;;;;;;4.84;72.22;99625.47;1773161;79;20966;-38
2022/04/17 04:30:13;;;;;;;4.05;2.10;;;;;;;4.69;72.11;99628.84;1773190;79;21567;-38
2022/04/17 04:32:39;;;;;;;2.87;1.85;;;;;;;4.68;72.40;99630.49;1772913;81;20983;-38
2022/04/17 04:35:07;;;;;;;3.27;1.90;;;;;;;4.71;72.38;99637.36;1760011;81;21033;-38
2022/04/17 04:37:35;;;;;;;2.50;1.73;;;;;;;4.73;72.36;99634.38;1769842;81;21046;-38
2022/04/17 04:40:05;;;;;;;1.85;1.65;;;;;;;4.70;72.36;99639.01;1766678;81;21020;-38
2022/04/17 04:42:31;;;;;;;1.95;1.67;;;;;;;4.64;72.46;99643.77;1767174;81;21177;-38
2022/04/17 04:47:44;;;;;;;1.50;1.27;;;;;;;4.61;72.70;99646.26;1766724;81;21587;-38
2022/04/17 04:50:11;;;;;;;2.17;1.60;;;;;;;4.64;72.67;99646.45;1766769;81;21017;-38
2022/04/17 04:52:38;;;;;;;2.35;1.50;;;;;;;4.61;72.85;99643.58;1766769;81;21029;-38
2022/04/17 04:55:05;;;;;;;1.80;1.60;;;;;;;4.59;73.17;99643.91;1766818;81;21129;-38
2022/04/17 04:57:36;;;;;;;1.70;1.60;;;;;;;4.55;73.59;99642.92;1775365;80;21498;-39
2022/04/17 05:00:06;;;;;;;2.02;1.65;;;;;;;4.55;73.48;99650.98;1785922;80;21012;-38
2022/04/17 05:02:34;;;;;;;2.92;1.82;;;;;;;4.61;73.58;99642.23;1786250;80;20936;-38
2022/04/17 05:05:01;;;;;;;2.00;1.80;;;;;;;4.65;73.60;99649.34;1756584;80;21036;-38
2022/04/17 05:07:29;;;;;;;2.47;2.27;;;;;;;4.63;73.64;99651.57;1785813;80;21130;-38
2022/04/17 05:09:57;;;;;;;2.20;2.00;;;;;;;4.61;73.77;99648.39;1785938;80;21028;-38
2022/04/17 05:12:25;;;;;;;2.33;1.90;;;;;;;4.59;73.66;99653.86;1785868;80;21013;-38
2022/04/17 05:14:54;;;;;;;2.40;1.80;;;;;;;4.56;73.61;99652.56;1785901;79;20976;-38
2022/04/17 05:17:21;;;;;;;3.50;1.90;;;;;;;4.62;73.74;99655.35;1785935;80;21549;-39
2022/04/17 05:19:49;;;;;;;1.80;1.70;;;;;;;4.68;73.65;99652.77;1785960;80;21117;-39
2022/04/17 05:22:17;;;;;;;2.60;2.30;;;;;;;4.70;73.39;99650.55;1785854;80;21023;-38
2022/04/17 05:24:44;;;;;;;2.72;2.10;;;;;;;4.72;73.51;99647.55;1785966;80;20971;-38
2022/04/17 05:27:12;;;;;;;2.12;1.90;;;;;;;4.74;73.38;99651.50;1785965;80;21643;-38
2022/04/17 05:29:40;;;;;;;1.92;1.80;;;;;;;4.70;72.98;99651.89;1786196;80;21051;-38
2022/04/17 05:32:08;;;;;;;2.37;2.17;;;;;;;4.67;73.08;99658.44;1785867;80;21105;-38
2022/04/17 05:34:36;;;;;;;2.60;2.02;;;;;;;4.65;73.33;99651.23;1784459;80;21020;-39
2022/04/17 05:37:04;;;;;;;2.37;2.17;;;;;;;4.59;73.29;99660.02;1754798;81;20936;-38
2022/04/17 05:39:30;;;;;;;2.27;2.08;;;;;;;4.49;73.68;99658.96;1754787;81;21064;-38
2022/04/17 05:41:58;;;;;;;2.20;1.92;;;;;;;4.50;73.83;99659.20;1755011;81;21526;-39
2022/04/17 05:44:27;;;;;;;2.25;2.05;;;;;;;4.57;73.94;99656.84;1754739;81;21987;-38
2022/04/17 05:46:55;;;;;;;2.10;1.90;;;;;;;4.68;73.66;99666.20;1754516;81;21544;-38
2022/04/17 05:49:22;;;;;;;1.98;1.80;;;;;;;4.69;73.48;99661.07;1754924;81;20976;-39
2022/04/17 05:51:50;;;;;;;2.35;1.92;;;;;;;4.70;73.34;99654.57;1754671;81;21008;-39
2022/04/17 05:54:17;;;;;;;1.95;1.75;;;;;;;4.68;73.42;99659.48;1754959;81;20997;-39
2022/04/17 05:56:43;;;;;;;1.65;1.55;;;;;;;4.66;73.17;99655.52;1754756;81;21355;-38
2022/04/17 05:59:10;;;;;;;1.85;1.75;;;;;;;4.62;73.05;99656.70;1736358;81;20969;-38
2022/04/17 06:01:38;;;;;;;1.80;1.70;;;;;;;4.63;73.30;99661.52;1736157;82;21036;-38
2022/04/17 06:04:05;;;;;;;2.05;1.80;;;;;;;4.60;73.35;99666.19;1736442;82;21547;-38
2022/04/17 06:06:32;;;;;;;2.65;2.00;;;;;;;4.57;73.57;99663.55;1736327;82;21040;-39
2022/04/17 06:09:00;;;;;;;1.82;1.60;;;;;;;4.56;73.58;99661.97;1736148;82;21224;-39
2022/04/17 06:11:27;;;;;;;1.57;1.45;;;;;;;4.57;73.71;99668.13;1736100;82;20993;-38
2022/04/17 06:13:55;;;;;;;2.10;1.77;;;;;;;4.65;73.84;99665.46;1736242;82;21072;-38
2022/04/17 06:16:22;;;;;;;2.02;1.82;;;;;;;4.70;73.61;99661.84;1730764;82;21040;-39
2022/04/17 06:18:49;;;;;;;2.25;2.05;;;;;;;4.65;73.22;99661.44;1736237;82;21061;-38
2022/04/17 06:21:18;;;;;;;2.33;1.85;;;;;;;4.63;73.39;99670.92;1736329;82;21012;-38
2022/04/17 06:23:45;;;;;;;2.27;1.75;;;;;;;4.59;73.23;99664.59;1736194;82;21008;-38
2022/04/17 06:26:13;;;;;;;2.27;1.70;;;;;;;4.60;73.16;99671.55;1736225;82;20989;-38
2022/04/17 06:28:40;;;;;;;2.27;1.77;;;;;;;4.65;73.13;99664.12;1736063;82;21566;-38
2022/04/17 06:31:07;;;;;;;2.62;1.70;;;;;;;4.64;72.95;99664.45;1736198;82;21100;-38
2022/04/17 06:33:35;;;;;;;2.00;1.80;;;;;;;4.59;73.12;99663.25;1736100;82;21004;-38
2022/04/17 06:36:04;;;;;;;3.00;1.62;;;;;;;4.55;73.48;99667.09;1729993;82;21043;-38
2022/04/17 06:38:30;;;;;;;2.25;1.60;;;;;;;4.54;73.28;99666.08;1736063;82;20973;-38
2022/04/17 06:40:57;;;;;;;1.40;1.30;;;;;;;4.59;72.99;99670.76;1736213;82;21084;-38
2022/04/17 06:43:24;;;;;;;2.08;1.70;;;;;;;4.58;72.93;99674.54;1736254;82;21479;-38
2022/04/17 06:45:53;;;;;;;1.77;1.67;;;;;;;4.57;73.12;99675.64;1736090;82;21016;-38
2022/04/17 06:48:21;;;;;;;1.90;1.50;;;;;;;4.59;73.31;99678.02;1735999;82;21534;-38
2022/04/17 06:50:52;;;;;;;1.45;1.35;;;;;;;4.63;73.34;99675.74;1736271;82;21007;-38
2022/04/17 06:53:18;;;;;;;1.75;1.65;;;;;;;4.72;73.79;99680.58;1736148;82;20913;-39
2022/04/17 06:55:47;;;;;;;1.85;1.50;;;;;;;4.84;73.83;99676.50;1736235;82;21088;-38
2022/04/17 06:58:17;;;;;;;2.08;1.70;;;;;;;4.94;73.74;99682.92;1743549;81;23155;-39
2022/04/17 07:00:45;;;;;;;1.82;1.70;;;;;;;5.00;73.50;99679.75;1752317;81;20944;-39
2022/04/17 07:03:13;;;;;;;3.20;1.50;;;;;;;5.08;73.33;99670.89;1752258;81;21027;-38
2022/04/17 07:05:42;;;;;;;1.87;1.50;;;;;;;5.12;72.53;99674.56;1752552;81;21039;-39
2022/04/17 07:08:09;;;;;;;1.55;1.45;;;;;;;5.19;71.64;99679.45;1752493;81;21035;-38
2022/04/17 07:10:39;;;;;;;2.10;1.60;;;;;;;5.22;71.62;99676.94;1752324;81;21036;-38
2022/04/17 07:13:11;;;;;;;2.50;1.85;;;;;;;5.29;72.41;99675.11;1752301;81;21021;-38
2022/04/17 07:15:39;;;;;;;2.10;1.40;;;;;;;5.41;72.06;99680.66;1752285;81;20949;-38
2022/04/17 07:18:07;;;;;;;1.52;1.42;;;;;;;5.52;70.52;99680.55;1752237;81;20909;-38
2022/04/17 07:20:35;;;;;;;1.77;1.50;;;;;;;5.61;70.35;99682.70;1746647;81;21040;-39
2022/04/17 07:23:04;;;;;;;1.52;1.40;;;;;;;5.68;70.12;99674.92;1752488;81;21112;-38
2022/04/17 07:25:32;;;;;;;2.15;1.60;;;;;;;5.75;69.76;99679.03;1752187;81;21027;-39
2022/04/17 07:27:59;;;;;;;1.98;1.50;;;;;;;5.82;69.98;99667.21;1752219;81;21039;-38
2022/04/17 07:30:29;;;;;;;1.52;1.42;;;;;;;5.96;69.43;99667.28;1752300;81;21056;-38
2022/04/17 07:32:59;;;;;;;1.40;1.30;;;;;;;6.09;69.36;99673.05;1752655;81;21060;-39
2022/04/17 07:35:27;;;;;;;1.20;1.00;;;;;;;6.30;68.59;99677.70;1752299;81;21066;-39
2022/04/17 07:37:58;;;;;;;2.83;1.40;;;;;;;6.41;67.52;99671.64;1752538;81;20956;-39
2022/04/17 07:40:31;;;;;;;2.15;1.27;;;;;;;6.48;65.79;99670.59;1752617;81;20937;-38
2022/04/17 07:42:59;;;;;;;1.50;1.40;;;;;;;6.53;65.61;99666.34;1752245;81;20937;-39
2022/04/17 07:45:27;;;;;;;0.90;0.90;;;;;;;6.69;65.91;99655.80;1752463;81;21043;-39
2022/04/17 07:47:54;;;;;;;1.20;1.10;;;;;;;6.85;62.81;99660.07;1752198;81;21778;-39
2022/04/17 07:50:27;;;;;;;1.50;1.20;;;;;;;6.94;62.60;99659.45;1752199;81;21487;-39
2022/04/17 07:52:53;;;;;;;1.22;1.12;;;;;;;6.96;62.43;99658.02;1752230;81;20991;-39
2022/04/17 07:55:22;;;;;;;1.30;1.20;;;;;;;6.93;63.11;99663.26;1752325;81;21024;-39
2022/04/17 08:00:57;;;;;;;1.00;0.90;;;;;;;6.71;63.99;99681.08;1736058;82;20925;-38
2022/04/17 08:06:05;;;;;;;1.10;1.00;;;;;;;6.24;65.55;99674.97;1736190;82;21020;-39
2022/04/17 08:08:34;;;;;;;1.50;1.27;;;;;;;5.97;66.94;99668.08;1736061;82;21036;-39
2022/04/17 08:13:42;;;;;;;1.98;1.42;;;;;;;5.81;68.25;99662.97;1843958;76;23305;-37
2022/04/17 08:19:43;;;;;;;1.40;1.30;;;;;;;5.60;69.73;99664.18;1791103;77;20984;-37
2022/04/17 08:22:09;;;;;;;;;;;;;;;5.55;71.23;99669.17;1813817;79;21603;-37
2022/04/17 08:24:38;;;;;;;1.95;1.60;;;;;;;5.61;71.11;99657.15;1813637;78;20129;-37
2022/04/17 08:27:04;;;;;;;1.32;1.22;;;;;;;5.63;71.46;99653.56;1814511;79;21019;-37
2022/04/17 08:29:32;;;;;;;1.30;1.20;;;;;;;5.80;71.11;99662.72;1814559;79;21573;-37
2022/04/17 08:31:59;;;;;;;1.37;1.27;;;;;;;5.93;67.62;99665.25;1814374;79;21248;-37
2022/04/17 08:34:26;;;;;;;3.25;1.50;;;;;;;6.01;67.94;99656.91;1814570;79;20953;-37
2022/04/17 08:36:54;;;;;;;1.37;1.27;;;;;;;6.08;67.73;99658.00;1814482;79;20978;-37
2022/04/17 08:39:21;;;;;;;1.80;1.60;;;;;;;6.16;66.91;99665.80;1814426;79;21534;-37
2022/04/17 08:41:48;;;;;;;2.02;1.65;;;;;;;6.19;66.29;99662.48;1814363;79;20965;-37
2022/04/17 08:44:17;;;;;;;1.55;1.45;;;;;;;6.25;66.66;99662.52;1814609;79;20964;-37
2022/04/17 08:46:43;;;;;;;2.20;1.82;;;;;;;6.37;65.27;99661.29;1814488;79;20964;-37
2022/04/17 08:49:11;;;;;;;1.40;1.15;;;;;;;6.53;65.19;99659.61;1814646;79;20960;-37
2022/04/17 08:51:39;;;;;;;1.75;1.32;;;;;;;6.84;65.10;99659.83;1814428;79;21063;-37
2022/04/17 08:54:07;;;;;;;1.62;1.45;;;;;;;7.21;64.80;99653.53;1814487;79;21067;-37
2022/04/17 08:56:35;;;;;;;2.00;1.35;;;;;;;7.50;65.01;99651.33;1814629;79;21138;-37
2022/04/17 08:59:02;;;;;;;1.30;1.10;;;;;;;7.68;62.44;99672.17;1814439;79;21007;-37
2022/04/17 09:01:29;;;;;;;1.32;1.22;;;;;;;7.64;61.55;99681.51;1814452;79;20980;-37
2022/04/17 09:03:57;;;;;;;1.62;1.50;;;;;;;7.32;61.79;99683.59;1814459;79;20957;-37
2022/04/17 09:06:23;;;;;;;2.00;1.70;;;;;;;6.92;62.63;99684.03;1814612;79;20933;-37
2022/04/17 09:09:04;;;;;;;1.50;1.40;;;;;;;6.60;64.17;99686.05;1814470;79;21131;-37
2022/04/17 09:11:33;;;;;;;1.57;1.17;;;;;;;6.31;64.78;99692.20;1814237;79;20972;-37
2022/04/17 09:14:03;;;;;;;1.42;1.27;;;;;;;5.99;66.21;99698.16;1814464;79;20909;-37
2022/04/17 09:16:36;;;;;;;1.50;1.30;;;;;;;5.83;67.20;99695.15;1814488;79;21532;-37
2022/04/17 09:19:16;;;;;;;1.90;1.50;;;;;;;5.63;67.28;99699.29;1814430;79;21044;-37
2022/04/17 09:21:43;;;;;;;1.67;1.57;;;;;;;5.46;67.98;99700.66;1814691;79;21808;-37
2022/04/17 09:24:20;;;;;;;1.50;1.30;;;;;;;5.40;68.97;99695.75;1814112;79;20882;-37
2022/04/17 09:26:57;;;;;;;1.90;1.60;;;;;;;5.44;69.56;99689.97;1814229;79;20972;-37
2022/04/17 09:29:27;;;;;;;1.30;1.20;;;;;;;5.59;69.59;99688.94;1813133;79;20973;-37
2022/04/17 09:32:02;;;;;;;2.15;1.55;;;;;;;5.74;70.06;99682.83;1814291;79;21016;-37
2022/04/17 09:34:54;;;;;;;2.40;1.60;;;;;;;5.89;70.02;99679.11;1813925;79;21279;-37
2022/04/17 09:37:23;;;;;;;1.65;1.55;;;;;;;5.98;69.47;99668.32;1813551;79;21534;-37
2022/04/17 09:39:52;;;;;;;1.70;1.20;;;;;;;6.13;69.13;99665.66;1813274;79;21011;-37
2022/04/17 09:42:23;;;;;;;1.55;1.40;;;;;;;6.36;68.83;99661.60;1814168;79;21007;-37
2022/04/17 09:44:54;;;;;;;2.20;1.45;;;;;;;6.75;67.87;99662.59;1813924;79;21498;-37
2022/04/17 09:47:22;;;;;;;;;;;;;;;7.20;64.89;99659.27;1816705;78;20945;-37
2022/04/17 09:50:00;;;;;;;1.52;1.42;;;;;;;7.60;62.86;99654.94;1813845;78;20117;-38
2022/04/17 09:52:41;;;;;;;1.92;1.60;;;;;;;7.91;64.41;99653.13;1814108;79;20917;-38
2022/04/17 09:55:08;;;;;;;2.00;1.52;;;;;;;8.29;60.95;99644.20;1813919;79;21401;-37
2022/04/17 09:57:41;;;;;;;2.15;1.55;;;;;;;8.35;58.82;99646.12;1813922;79;21554;-37
2022/04/17 10:00:14;;;;;;;1.45;1.20;;;;;;;8.29;57.52;99638.80;1814013;79;21578;-37
2022/04/17 10:02:42;;;;;;;1.30;1.20;;;;;;;8.07;56.41;99659.47;1813800;79;20985;-38
2022/04/17 10:05:12;;;;;;;1.50;1.40;;;;;;;7.75;56.46;99652.17;1814163;79;21005;-37
2022/04/17 10:07:46;;;;;;;5.37;1.62;;;;;;;7.50;58.22;99651.88;1814479;79;21534;-37
2022/04/17 10:10:14;;;;;;;1.60;1.50;;;;;;;7.32;58.79;99645.28;1813856;79;20989;-38
2022/04/17 10:12:46;;;;;;;3.00;1.62;;;;;;;7.18;58.50;99642.06;1819924;78;21095;-37
2022/04/17 10:15:15;;;;;;;1.70;1.32;;;;;;;7.21;60.40;99642.74;1831519;78;20964;-37
2022/04/17 10:17:45;;;;;;;2.25;1.40;;;;;;;7.54;62.32;99633.91;1831460;78;20983;-37
2022/04/17 10:20:14;;;;;;;1.30;1.20;;;;;;;8.05;60.76;99623.89;1831532;78;21494;-37
2022/04/17 10:22:53;;;;;;;1.67;1.57;;;;;;;8.52;57.08;99622.16;1831939;78;21989;-37
2022/04/17 10:25:16;;;;;;;1.82;1.42;;;;;;;8.75;55.61;99620.55;1830544;78;21513;-37
2022/04/17 10:27:57;;;;;;;1.65;1.00;;;;;;;8.82;55.36;99628.06;1831758;78;21664;-37
2022/04/17 10:30:27;;;;;;;1.35;0.95;;;;;;;8.72;53.23;99627.97;1831552;78;21454;-38
2022/04/17 10:33:21;;;;;;;1.67;1.00;;;;;;;8.41;51.55;99627.22;1831465;78;20977;-37
2022/04/17 10:36:09;;;;;;;1.00;1.00;;;;;;;8.06;51.56;99634.14;1831342;78;20999;-38
2022/04/17 10:39:15;;;;;;;1.02;0.93;;;;;;;7.77;52.49;99631.05;1830932;78;23142;-37
2022/04/17 10:41:41;;;;;;;1.60;1.15;;;;;;;7.76;53.47;99624.06;1831300;78;20913;-37
2022/04/17 10:44:12;;;;;;;1.32;1.17;;;;;;;8.17;55.55;99619.08;1831617;78;21050;-37
2022/04/17 10:46:51;;;;;;;3.30;1.42;;;;;;;8.60;54.62;99628.00;1831564;78;20963;-37
2022/04/17 10:49:23;;;;;;;2.55;1.55;;;;;;;8.50;54.50;99631.94;1831840;78;20989;-37
2022/04/17 10:51:53;;;;;;;2.02;1.62;;;;;;;8.50;54.50;99631.94;1801932;78;21094;-37
2022/04/17 10:54:19;;;;;;;3.12;1.80;;;;;;;8.26;55.67;99625.95;1831526;78;21008;-37
2022/04/17 10:56:59;;;;;;;1.32;1.00;;;;;;;7.95;55.09;99638.38;1831534;78;20960;-37
2022/04/17 10:59:33;;;;;;;3.02;1.30;;;;;;;7.63;53.39;99633.27;1831660;78;20897;-38
2022/04/17 11:02:18;;;;;;;1.30;1.07;;;;;;;7.31;54.24;99634.25;1831712;78;21087;-37
2022/04/17 11:04:54;;;;;;;2.02;0.80;;;;;;;7.08;55.28;99635.72;1831399;78;21188;-37
2022/04/17 11:07:30;;;;;;;2.80;1.45;;;;;;;6.98;55.25;99626.67;1831412;78;20960;-37
2022/04/17 11:10:09;;;;;;;2.50;1.60;;;;;;;7.07;55.99;99625.28;1831255;78;21536;-38
2022/04/17 11:12:49;;;;;;;1.35;1.00;;;;;;;7.43;56.67;99618.13;1829361;78;21553;-37
2022/04/17 11:15:21;;;;;;;0.90;0.90;;;;;;;8.00;55.55;99610.61;1813866;79;20953;-37
2022/04/17 11:17:49;;;;;;;1.77;0.95;;;;;;;8.42;52.27;99615.30;1813741;79;23151;-37
2022/04/17 11:20:16;;;;;;;1.25;0.90;;;;;;;8.16;50.84;99556.73;1753757;79;20972;-37
2022/04/17 11:22:45;;;;;;;1.17;0.70;;;;;;;8.40;51.10;99607.29;1783067;79;20969;-37
2022/04/17 11:25:12;;;;;;;0.80;0.80;;;;;;;8.48;51.29;99606.38;1813778;79;20964;-37
2022/04/17 11:27:47;;;;;;;1.12;0.90;;;;;;;8.61;49.90;99596.59;1813717;79;20995;-37
2022/04/17 11:30:20;;;;;;;1.27;0.90;;;;;;;8.64;49.65;99603.22;1814212;79;21188;-37
2022/04/17 11:32:51;;;;;;;1.10;1.00;;;;;;;8.55;50.37;99603.91;1813561;79;20917;-37
2022/04/17 11:35:22;;;;;;;1.15;1.00;;;;;;;8.39;50.28;99600.30;1814064;79;21003;-37
2022/04/17 11:37:56;;;;;;;1.35;1.00;;;;;;;8.24;51.00;99608.49;1813963;79;20925;-37
2022/04/17 11:40:26;;;;;;;0.60;0.60;;;;;;;8.11;51.93;99618.51;1813669;79;21016;-37
2022/04/17 11:42:55;;;;;;;1.47;0.57;;;;;;;8.01;51.80;99613.55;1813799;79;21055;-37
2022/04/17 11:45:27;;;;;;;1.57;0.80;;;;;;;8.03;52.48;99619.41;1813925;79;20965;-37
2022/04/17 11:47:56;;;;;;;1.22;0.85;;;;;;;8.19;52.26;99616.81;1813850;79;20957;-37
2022/04/17 11:50:27;;;;;;;0.80;0.80;;;;;;;8.25;51.49;99614.91;1813679;79;21016;-37
2022/04/17 11:53:00;;;;;;;0.75;0.70;;;;;;;8.21;51.91;99616.72;1813676;79;21064;-37
2022/04/17 11:55:35;;;;;;;0.82;0.82;;;;;;;8.14;52.27;99615.13;1814144;79;21204;-38
2022/04/17 11:58:03;;;;;;;1.10;0.95;;;;;;;8.08;53.24;99619.20;1813253;79;21004;-38
2022/04/17 12:00:31;;;;;;;1.75;0.90;;;;;;;8.01;53.57;99614.90;1813985;79;20941;-37
2022/04/17 12:03:05;;;;;;;0.65;0.65;;;;;;;7.99;53.92;99610.38;1813664;79;21028;-37
2022/04/17 12:05:35;;;;;;;1.20;1.00;;;;;;;7.99;54.41;99616.38;1814031;79;21037;-38
2022/04/17 12:08:09;;;;;;;1.22;0.90;;;;;;;7.97;53.68;99620.75;1783061;79;21012;-37
2022/04/17 12:10:42;;;;;;;1.52;0.80;;;;;;;7.93;53.56;99617.14;1813638;79;20949;-37
2022/04/17 12:13:20;;;;;;;1.47;0.65;;;;;;;7.95;52.96;99624.89;1818172;78;22135;-37
2022/04/17 12:16:03;;;;;;;1.05;0.80;;;;;;;8.20;53.87;99616.48;1834265;78;21091;-37